createdAt,value
2023-04-20T00:00:34.804Z,36.58
2023-04-20T00:03:02.722Z,36.94
2023-04-20T00:05:32.465Z,36.35
2023-04-20T00:08:00.250Z,36.95
2023-04-20T00:10:28.002Z,37.45
2023-04-20T00:12:55.723Z,37.05
2023-04-20T00:15:23.433Z,37.27
2023-04-20T00:17:51.874Z,38.07
2023-04-20T00:20:19.566Z,37.23
2023-04-20T00:22:47.165Z,37.46
2023-04-20T00:25:14.638Z,37.36
2023-04-20T00:27:42.275Z,37.49
2023-04-20T00:30:10.935Z,37.41
2023-04-20T00:32:38.500Z,37.42
2023-04-20T00:35:08.223Z,38.12
2023-04-20T00:37:36.391Z,37.86
2023-04-20T00:40:04.517Z,38.23
2023-04-20T00:42:32.184Z,38.60
2023-04-20T00:44:59.734Z,39.24
2023-04-20T00:47:27.378Z,39.63
2023-04-20T00:49:55.187Z,40.60
2023-04-20T00:52:22.753Z,40.70
2023-04-20T00:54:50.417Z,40.80
2023-04-20T00:57:24.244Z,40.53
2023-04-20T00:59:52.003Z,41.16
2023-04-20T01:02:23.040Z,40.41
2023-04-20T01:04:50.705Z,41.47
2023-04-20T01:07:18.168Z,42.28
2023-04-20T01:09:45.746Z,42.04
2023-04-20T01:12:13.272Z,42.98
2023-04-20T01:14:40.863Z,44.11
2023-04-20T01:17:08.790Z,44.56
2023-04-20T01:19:36.267Z,43.94
2023-04-20T01:22:03.747Z,44.42
2023-04-20T01:24:31.185Z,43.76
2023-04-20T01:27:00.212Z,44.93
2023-04-20T01:29:28.733Z,44.61
2023-04-20T01:31:56.236Z,44.92
2023-04-20T01:34:24.660Z,45.16
2023-04-20T01:36:52.180Z,44.63
2023-04-20T01:39:20.142Z,47.44
2023-04-20T01:41:48.716Z,48.64
2023-04-20T01:44:16.322Z,49.14
2023-04-20T01:46:43.871Z,50.27
2023-04-20T01:49:11.447Z,50.01
2023-04-20T01:51:38.958Z,49.72
2023-04-20T01:54:06.530Z,50.39
2023-04-20T01:56:35.015Z,49.52
2023-04-20T01:59:02.460Z,49.31
2023-04-20T02:01:30.012Z,48.55
2023-04-20T02:03:57.667Z,48.16
2023-04-20T02:06:25.421Z,46.85
2023-04-20T02:08:52.871Z,48.01
2023-04-20T02:11:22.342Z,48.80
2023-04-20T02:13:49.903Z,47.68
2023-04-20T02:16:19.348Z,48.06
2023-04-20T02:18:47.500Z,47.91
2023-04-20T02:21:15.046Z,49.10
2023-04-20T02:23:42.814Z,48.88
2023-04-20T02:26:10.575Z,48.96
2023-04-20T02:28:41.371Z,49.06
2023-04-20T02:31:09.462Z,48.31
2023-04-20T02:33:37.575Z,47.19
2023-04-20T02:36:05.802Z,44.61
2023-04-20T02:38:33.579Z,42.07
2023-04-20T02:41:02.072Z,41.64
2023-04-20T02:43:29.721Z,39.26
2023-04-20T02:45:57.471Z,38.78
2023-04-20T02:48:25.235Z,38.20
2023-04-20T02:50:56.846Z,37.22
2023-04-20T02:53:26.573Z,36.55
2023-04-20T02:56:09.671Z,36.13
2023-04-20T02:58:44.615Z,34.37
2023-04-20T03:01:34.771Z,35.24
2023-04-20T03:04:18.355Z,36.28
2023-04-20T03:06:57.308Z,34.32
2023-04-20T03:09:29.359Z,33.65
2023-04-20T03:12:23.502Z,32.26
2023-04-20T03:15:04.809Z,31.53
2023-04-20T03:17:44.597Z,30.91
2023-04-20T03:20:12.785Z,30.80
2023-04-20T03:22:40.630Z,30.41
2023-04-20T03:25:09.771Z,30.69
2023-04-20T03:27:52.916Z,29.96
2023-04-20T03:30:21.031Z,30.21
2023-04-20T03:32:54.433Z,29.68
2023-04-20T03:35:22.459Z,29.62
2023-04-20T03:37:50.116Z,29.89
2023-04-20T03:40:17.780Z,29.74
2023-04-20T03:42:45.444Z,29.14
2023-04-20T03:45:13.883Z,29.85
2023-04-20T03:47:43.067Z,29.21
2023-04-20T03:50:11.029Z,28.91
2023-04-20T03:52:40.059Z,28.54
2023-04-20T03:55:08.110Z,28.07
2023-04-20T03:57:39.186Z,27.77
2023-04-20T04:00:10.125Z,28.25
2023-04-20T04:02:47.383Z,27.80
2023-04-20T04:05:21.744Z,27.86
2023-04-20T04:07:50.722Z,28.26
2023-04-20T04:10:19.462Z,28.69
2023-04-20T04:12:47.350Z,28.50
2023-04-20T04:15:15.760Z,28.08
2023-04-20T04:17:55.063Z,27.93
2023-04-20T04:20:23.739Z,27.90
2023-04-20T04:22:52.481Z,27.84
2023-04-20T04:25:57.593Z,27.78
2023-04-20T04:28:27.054Z,27.17
2023-04-20T04:31:10.125Z,26.64
2023-04-20T04:33:37.718Z,27.05
2023-04-20T04:36:06.682Z,28.21
2023-04-20T04:38:35.504Z,29.55
2023-04-20T04:41:03.161Z,30.50
2023-04-20T04:43:31.728Z,31.54
2023-04-20T04:46:13.529Z,32.78
2023-04-20T04:48:42.609Z,33.70
2023-04-20T04:51:11.232Z,34.38
2023-04-20T04:53:38.856Z,35.15
2023-04-20T04:56:07.194Z,35.83
2023-04-20T04:58:34.680Z,35.39
2023-04-20T05:01:02.297Z,35.93
2023-04-20T05:03:29.920Z,36.84
2023-04-20T05:05:57.605Z,37.13
2023-04-20T05:08:25.020Z,37.66
2023-04-20T05:10:52.647Z,37.91
2023-04-20T05:13:20.224Z,37.82
2023-04-20T05:15:47.626Z,37.31
2023-04-20T05:18:15.138Z,36.93
2023-04-20T05:20:43.048Z,35.63
2023-04-20T05:23:10.738Z,35.22
2023-04-20T05:25:38.496Z,34.90
2023-04-20T05:28:06.153Z,34.46
2023-04-20T05:30:33.634Z,34.09
2023-04-20T05:33:01.144Z,33.99
2023-04-20T05:35:28.696Z,34.76
2023-04-20T05:37:56.139Z,36.18
2023-04-20T05:40:23.683Z,36.65
2023-04-20T05:42:51.211Z,36.61
2023-04-20T05:45:18.809Z,35.55
2023-04-20T05:47:54.426Z,37.87
2023-04-20T05:50:25.808Z,38.52
2023-04-20T05:52:54.381Z,38.80
2023-04-20T05:55:23.042Z,38.81
2023-04-20T05:57:52.210Z,40.48
2023-04-20T06:00:21.482Z,41.25
2023-04-20T06:02:50.363Z,42.00
2023-04-20T06:05:18.144Z,42.78
2023-04-20T06:07:45.800Z,44.77
2023-04-20T06:10:13.526Z,46.68
2023-04-20T06:12:41.228Z,48.79
2023-04-20T06:15:11.244Z,51.65
2023-04-20T06:17:41.038Z,56.77
2023-04-20T06:20:10.987Z,67.17
2023-04-20T06:22:43.786Z,58.94
2023-04-20T06:25:11.696Z,50.91
2023-04-20T06:27:39.228Z,51.36
2023-04-20T06:30:07.272Z,57.55
2023-04-20T06:32:34.775Z,67.96
2023-04-20T06:35:02.322Z,70.02
2023-04-20T06:37:31.032Z,77.79
2023-04-20T06:39:58.582Z,76.38
2023-04-20T06:42:26.571Z,82.95
2023-04-20T06:44:57.565Z,85.91
2023-04-20T06:47:31.729Z,87.19
2023-04-20T06:50:03.194Z,90.11
2023-04-20T06:52:32.182Z,92.01
2023-04-20T06:55:00.622Z,93.55
2023-04-20T06:57:28.245Z,94.10
2023-04-20T06:59:55.665Z,89.67
2023-04-20T07:02:23.299Z,86.83
2023-04-20T07:04:50.988Z,86.92
2023-04-20T07:07:18.558Z,86.32
2023-04-20T07:09:46.094Z,84.98
2023-04-20T07:12:15.979Z,84.88
2023-04-20T07:14:43.654Z,84.55
2023-04-20T07:17:11.142Z,85.00
2023-04-20T07:19:38.660Z,85.65
2023-04-20T07:22:06.177Z,87.20
2023-04-20T07:24:33.666Z,89.41
2023-04-20T07:27:01.729Z,90.86
2023-04-20T07:29:29.141Z,94.10
2023-04-20T07:31:56.647Z,98.53
2023-04-20T07:34:24.276Z,100.00
2023-04-20T07:36:51.736Z,100.00
2023-04-20T07:39:19.703Z,100.00
2023-04-20T07:41:47.436Z,100.00
2023-04-20T07:44:14.890Z,100.00
2023-04-20T07:46:42.424Z,100.00
2023-04-20T07:49:09.924Z,100.00
2023-04-20T07:51:37.370Z,100.00
2023-04-20T07:54:04.926Z,100.00
2023-04-20T07:56:32.465Z,100.00
2023-04-20T07:58:59.979Z,100.00
2023-04-20T08:01:27.612Z,100.00
2023-04-20T08:03:57.807Z,100.00
2023-04-20T08:06:25.940Z,100.00
2023-04-20T08:08:53.641Z,100.00
2023-04-20T08:11:21.953Z,100.00
2023-04-20T08:13:49.504Z,100.00
2023-04-20T08:16:17.126Z,100.00
2023-04-20T08:18:44.605Z,100.00
2023-04-20T08:21:12.153Z,100.00
2023-04-20T08:23:39.678Z,100.00
2023-04-20T08:26:07.192Z,100.00
2023-04-20T08:28:34.868Z,100.00
2023-04-20T08:31:02.451Z,100.00
2023-04-20T08:33:29.985Z,100.00
2023-04-20T08:35:57.522Z,100.00
2023-04-20T08:38:33.928Z,100.00
2023-04-20T08:41:02.424Z,100.00
2023-04-20T08:43:30.354Z,100.00
2023-04-20T08:46:00.193Z,100.00
2023-04-20T08:48:36.044Z,100.00
2023-04-20T08:51:04.897Z,100.00
2023-04-20T08:53:32.967Z,100.00
2023-04-20T08:56:00.828Z,100.00
2023-04-20T08:58:33.137Z,100.00
2023-04-20T09:01:01.700Z,100.00
2023-04-20T09:03:40.331Z,100.00
2023-04-20T09:06:16.474Z,100.00
2023-04-20T09:08:45.073Z,100.00
2023-04-20T09:11:26.424Z,100.00
2023-04-20T09:14:05.054Z,100.00
2023-04-20T09:16:33.584Z,100.00
2023-04-20T09:19:01.312Z,100.00
2023-04-20T09:21:29.583Z,100.00
2023-04-20T09:24:08.328Z,100.00
2023-04-20T09:26:36.963Z,100.00
2023-04-20T09:29:05.751Z,100.00
2023-04-20T09:31:37.278Z,100.00
2023-04-20T09:34:04.991Z,100.00
2023-04-20T09:36:43.606Z,100.00
2023-04-20T09:39:17.834Z,100.00
2023-04-20T09:41:46.001Z,100.00
2023-04-20T09:44:14.570Z,100.00
2023-04-20T09:46:43.386Z,100.00
2023-04-20T09:49:13.174Z,100.00
2023-04-20T09:51:45.389Z,100.00
2023-04-20T09:54:13.782Z,100.00
2023-04-20T09:56:41.631Z,100.00
2023-04-20T09:59:09.303Z,100.00
2023-04-20T10:01:38.460Z,100.00
2023-04-20T10:04:14.842Z,100.00
2023-04-20T10:06:58.210Z,100.00
2023-04-20T10:09:26.958Z,100.00
2023-04-20T10:12:07.111Z,100.00
2023-04-20T10:14:35.933Z,100.00
2023-04-20T10:17:09.553Z,100.00
2023-04-20T10:19:47.701Z,100.00
2023-04-20T10:22:33.050Z,100.00
2023-04-20T10:25:19.884Z,100.00
2023-04-20T10:27:59.272Z,100.00
2023-04-20T10:30:28.628Z,100.00
2023-04-20T10:33:13.499Z,100.00
2023-04-20T10:35:52.593Z,100.00
2023-04-20T10:38:34.490Z,100.00
2023-04-20T10:41:12.998Z,100.00
2023-04-20T10:43:43.873Z,100.00
2023-04-20T10:46:19.112Z,100.00
2023-04-20T10:49:01.845Z,98.52
2023-04-20T10:51:29.602Z,94.83
2023-04-20T10:54:08.375Z,96.68
2023-04-20T10:56:44.258Z,95.89
2023-04-20T10:59:20.039Z,97.84
2023-04-20T11:01:48.702Z,99.82
2023-04-20T11:04:18.938Z,100.00
2023-04-20T11:06:51.169Z,100.00
2023-04-20T11:09:26.491Z,100.00
2023-04-20T11:12:08.142Z,100.00
2023-04-20T11:14:38.835Z,99.69
2023-04-20T11:17:07.286Z,97.78
2023-04-20T11:19:36.303Z,96.16
2023-04-20T11:22:06.456Z,94.04
2023-04-20T11:24:34.950Z,94.58
2023-04-20T11:27:04.968Z,94.47
2023-04-20T11:29:38.460Z,98.21
2023-04-20T11:32:09.098Z,98.60
2023-04-20T11:34:39.025Z,99.18
2023-04-20T11:37:10.706Z,96.87
2023-04-20T11:39:38.939Z,96.81
2023-04-20T11:42:06.905Z,97.50
2023-04-20T11:44:36.917Z,98.14
2023-04-20T11:47:04.769Z,95.68
2023-04-20T11:49:32.457Z,92.23
2023-04-20T11:51:59.930Z,93.84
2023-04-20T11:54:28.710Z,92.66
2023-04-20T11:56:56.845Z,90.86
2023-04-20T11:59:24.360Z,89.11
2023-04-20T12:01:52.518Z,91.00
2023-04-20T12:04:20.325Z,94.46
2023-04-20T12:06:48.161Z,96.48
2023-04-20T12:09:15.626Z,98.13
2023-04-20T12:11:43.191Z,94.74
2023-04-20T12:14:10.749Z,92.42
2023-04-20T12:16:38.289Z,90.88
2023-04-20T12:19:05.711Z,90.82
2023-04-20T12:21:33.321Z,92.48
2023-04-20T12:24:00.734Z,93.42
2023-04-20T12:26:37.360Z,92.38
2023-04-20T12:29:05.799Z,90.47
2023-04-20T12:31:33.493Z,88.54
2023-04-20T12:34:00.937Z,88.75
2023-04-20T12:36:28.640Z,87.73
2023-04-20T12:38:56.285Z,87.40
2023-04-20T12:41:23.872Z,87.84
2023-04-20T12:43:52.251Z,91.79
2023-04-20T12:46:19.903Z,87.68
2023-04-20T12:48:47.436Z,86.75
2023-04-20T12:51:15.574Z,85.49
2023-04-20T12:53:43.096Z,88.06
2023-04-20T12:56:10.669Z,86.55
2023-04-20T12:58:38.135Z,89.05
2023-04-20T13:01:05.739Z,89.93
2023-04-20T13:03:33.387Z,91.40
2023-04-20T13:06:01.213Z,87.76
2023-04-20T13:08:28.771Z,89.67
2023-04-20T13:10:56.327Z,90.92
2023-04-20T13:13:23.773Z,87.98
2023-04-20T13:15:54.799Z,92.18
2023-04-20T13:18:24.730Z,92.17
2023-04-20T13:20:52.204Z,91.07
2023-04-20T13:23:19.797Z,90.35
2023-04-20T13:25:47.367Z,89.80
2023-04-20T13:28:15.011Z,90.09
2023-04-20T13:30:42.459Z,91.95
2023-04-20T13:33:10.249Z,92.08
2023-04-20T13:35:37.815Z,91.13
2023-04-20T13:38:05.795Z,90.37
2023-04-20T13:40:33.385Z,88.72
2023-04-20T13:43:01.007Z,88.58
2023-04-20T13:45:28.613Z,89.29
2023-04-20T13:47:56.206Z,90.63
2023-04-20T13:50:23.978Z,91.02
2023-04-20T13:52:51.424Z,90.79
2023-04-20T13:55:20.944Z,88.30
2023-04-20T13:57:48.745Z,86.50
2023-04-20T14:00:16.930Z,88.07
2023-04-20T14:02:47.753Z,90.04
2023-04-20T14:05:15.517Z,92.37
2023-04-20T14:07:43.173Z,90.12
2023-04-20T14:10:10.819Z,89.71
2023-04-20T14:12:38.267Z,92.49
2023-04-20T14:15:06.320Z,93.94
2023-04-20T14:17:33.946Z,94.93
2023-04-20T14:20:02.527Z,96.15
2023-04-20T14:22:36.175Z,94.61
2023-04-20T14:28:00.429Z,93.64
2023-04-20T14:30:28.558Z,95.85
2023-04-20T14:33:00.549Z,93.32
2023-04-20T14:35:28.771Z,92.71
2023-04-20T14:37:56.304Z,92.41
2023-04-20T14:40:23.888Z,96.49
2023-04-20T14:42:51.419Z,97.34
2023-04-20T14:45:19.039Z,96.86
2023-04-20T14:47:46.523Z,94.40
2023-04-20T14:50:14.082Z,93.83
2023-04-20T14:52:41.550Z,93.56
2023-04-20T14:55:09.130Z,93.81
2023-04-20T14:57:36.681Z,94.77
2023-04-20T15:00:06.220Z,93.61
2023-04-20T15:02:34.364Z,88.63
2023-04-20T15:05:02.472Z,81.57
2023-04-20T15:07:30.477Z,89.62
2023-04-20T15:09:58.011Z,92.63
2023-04-20T15:12:25.461Z,94.81
2023-04-20T15:14:52.979Z,99.38
2023-04-20T15:17:20.765Z,100.00
2023-04-20T15:19:48.359Z,100.00
2023-04-20T15:22:16.016Z,100.00
2023-04-20T15:24:43.588Z,100.00
2023-04-20T15:27:12.577Z,100.00
2023-04-20T15:29:40.093Z,100.00
2023-04-20T15:32:07.977Z,100.00
2023-04-20T15:34:35.733Z,100.00
2023-04-20T15:37:03.341Z,100.00
2023-04-20T15:39:30.932Z,100.00
2023-04-20T15:41:59.464Z,100.00
2023-04-20T15:44:27.062Z,100.00
2023-04-20T15:46:54.616Z,100.00
2023-04-20T15:49:22.165Z,100.00
2023-04-20T15:51:49.722Z,100.00
2023-04-20T15:54:18.439Z,100.00
2023-04-20T15:56:46.301Z,100.00
2023-04-20T15:59:13.803Z,100.00
2023-04-20T16:01:41.487Z,100.00
2023-04-20T16:04:09.319Z,99.96
2023-04-20T16:06:39.694Z,99.43
2023-04-20T16:09:07.483Z,99.11
2023-04-20T16:11:35.279Z,99.61
2023-04-20T16:14:02.864Z,99.11
2023-04-20T16:16:30.536Z,98.74
2023-04-20T16:18:58.164Z,99.20
2023-04-20T16:21:25.781Z,97.99
2023-04-20T16:24:00.175Z,98.67
2023-04-20T16:26:27.732Z,97.09
2023-04-20T16:28:55.303Z,97.40
2023-04-20T16:31:22.940Z,97.57
2023-04-20T16:33:50.713Z,97.40
2023-04-20T16:36:18.244Z,96.54
2023-04-20T16:38:45.993Z,94.69
2023-04-20T16:41:13.715Z,94.42
2023-04-20T16:43:41.508Z,95.65
2023-04-20T16:46:13.423Z,97.34
2023-04-20T16:48:41.019Z,98.81
2023-04-20T16:51:08.894Z,98.26
2023-04-20T16:53:36.367Z,98.20
2023-04-20T16:56:04.031Z,97.25
2023-04-20T16:58:31.869Z,96.96
2023-04-20T17:00:59.474Z,97.24
2023-04-20T17:03:27.129Z,97.56
2023-04-20T17:05:54.844Z,97.24
2023-04-20T17:08:22.799Z,96.45
2023-04-20T17:10:50.385Z,95.86
2023-04-20T17:13:18.659Z,96.11
2023-04-20T17:15:46.632Z,97.57
2023-04-20T17:18:14.187Z,98.62
2023-04-20T17:20:42.528Z,97.95
2023-04-20T17:23:10.158Z,97.44
2023-04-20T17:25:37.680Z,98.34
2023-04-20T17:28:05.505Z,98.24
2023-04-20T17:30:33.080Z,97.43
2023-04-20T17:33:01.106Z,97.39
2023-04-20T17:35:28.582Z,96.33
2023-04-20T17:37:56.071Z,95.78
2023-04-20T17:40:23.788Z,95.72
2023-04-20T17:42:51.411Z,95.39
2023-04-20T17:45:19.004Z,96.02
2023-04-20T17:47:47.080Z,96.79
2023-04-20T17:50:16.703Z,96.34
2023-04-20T17:52:44.292Z,95.82
2023-04-20T17:55:12.063Z,97.36
2023-04-20T17:57:40.107Z,98.08
2023-04-20T18:00:11.850Z,97.25
2023-04-20T18:02:40.593Z,96.78
2023-04-20T18:05:08.803Z,96.08
2023-04-20T18:07:36.451Z,95.08
2023-04-20T18:10:05.116Z,94.68
2023-04-20T18:12:32.728Z,94.66
2023-04-20T18:15:01.213Z,94.83
2023-04-20T18:17:30.192Z,94.65
2023-04-20T18:19:57.727Z,94.83
2023-04-20T18:22:25.351Z,95.93
2023-04-20T18:24:52.798Z,96.37
2023-04-20T18:27:20.618Z,98.68
2023-04-20T18:29:52.867Z,97.98
2023-04-20T18:32:20.504Z,96.68
2023-04-20T18:34:48.172Z,96.26
2023-04-20T18:37:18.553Z,95.93
2023-04-20T18:39:46.391Z,95.37
2023-04-20T18:42:13.931Z,95.86
2023-04-20T18:44:41.495Z,95.15
2023-04-20T18:47:09.105Z,94.27
2023-04-20T18:49:36.768Z,93.59
2023-04-20T18:52:04.458Z,94.90
2023-04-20T18:54:32.079Z,95.28
2023-04-20T18:56:59.590Z,97.17
2023-04-20T18:59:27.074Z,98.30
2023-04-20T19:01:54.601Z,98.23
2023-04-20T19:04:22.464Z,98.94
2023-04-20T19:06:50.252Z,97.97
2023-04-20T19:09:17.756Z,98.07
2023-04-20T19:11:45.317Z,96.84
2023-04-20T19:14:12.943Z,95.75
2023-04-20T19:16:40.562Z,96.55
2023-04-20T19:19:08.368Z,96.32
2023-04-20T19:21:35.916Z,96.40
2023-04-20T19:24:03.545Z,95.88
2023-04-20T19:26:31.420Z,95.65
2023-04-20T19:28:59.820Z,95.28
2023-04-20T19:31:32.424Z,94.38
2023-04-20T19:34:00.056Z,92.70
2023-04-20T19:36:27.523Z,92.43
2023-04-20T19:38:55.107Z,93.06
2023-04-20T19:41:22.613Z,94.85
2023-04-20T19:43:50.147Z,94.34
2023-04-20T19:46:17.708Z,94.94
2023-04-20T19:48:45.652Z,94.20
2023-04-20T19:51:13.254Z,93.41
2023-04-20T19:53:40.750Z,93.48
2023-04-20T19:56:08.352Z,92.81
2023-04-20T19:58:36.001Z,93.17
2023-04-20T20:01:04.389Z,94.64
2023-04-20T20:03:32.162Z,93.84
2023-04-20T20:05:59.874Z,92.98
2023-04-20T20:08:27.649Z,92.16
2023-04-20T20:10:55.175Z,92.60
2023-04-20T20:13:22.658Z,92.57
2023-04-20T20:15:50.342Z,91.54
2023-04-20T20:18:17.970Z,92.65
2023-04-20T20:20:45.516Z,92.42
2023-04-20T20:23:13.472Z,93.36
2023-04-20T20:25:41.044Z,93.89
2023-04-20T20:28:08.593Z,94.21
2023-04-20T20:30:36.079Z,93.72
2023-04-20T20:33:04.038Z,93.81
2023-04-20T20:35:31.883Z,93.07
2023-04-20T20:38:00.579Z,95.00
2023-04-20T20:40:28.135Z,93.53
2023-04-20T20:42:55.764Z,92.56
2023-04-20T20:45:23.649Z,92.33
2023-04-20T20:47:51.223Z,92.11
2023-04-20T20:50:19.892Z,91.86
2023-04-20T20:52:47.457Z,91.77
2023-04-20T20:55:15.288Z,92.03
2023-04-20T20:57:42.779Z,92.23
2023-04-20T21:00:12.203Z,92.50
2023-04-20T21:02:40.172Z,92.08
2023-04-20T21:05:08.031Z,93.12
2023-04-20T21:07:35.617Z,91.96
2023-04-20T21:10:06.831Z,94.23
2023-04-20T21:12:35.155Z,92.16
2023-04-20T21:15:02.857Z,90.78
2023-04-20T21:17:32.688Z,90.17
2023-04-20T21:20:00.411Z,90.56
2023-04-20T21:22:28.234Z,90.64
2023-04-20T21:24:55.801Z,91.74
2023-04-20T21:27:23.249Z,92.04
2023-04-20T21:29:52.006Z,92.22
2023-04-20T21:32:19.710Z,92.48
2023-04-20T21:34:47.284Z,92.35
2023-04-20T21:37:14.810Z,91.12
2023-04-20T21:39:42.336Z,91.13
2023-04-20T21:42:09.941Z,91.25
2023-04-20T21:44:37.481Z,91.89
2023-04-20T21:47:05.056Z,92.04
2023-04-20T21:49:32.617Z,92.70
2023-04-20T21:52:00.256Z,92.97
2023-04-20T21:54:27.811Z,92.94
2023-04-20T21:56:55.349Z,93.23
2023-04-20T21:59:22.879Z,91.06
2023-04-20T22:01:50.482Z,91.95
2023-04-20T22:04:18.403Z,91.31
2023-04-20T22:06:45.919Z,89.92
2023-04-20T22:09:13.690Z,90.84
2023-04-20T22:11:41.375Z,91.33
2023-04-20T22:14:08.912Z,91.02
2023-04-20T22:16:36.824Z,90.48
2023-04-20T22:19:05.511Z,89.54
2023-04-20T22:21:32.992Z,89.98
2023-04-20T22:24:00.802Z,89.48
2023-04-20T22:26:28.336Z,88.78
2023-04-20T22:28:56.089Z,89.21
2023-04-20T22:31:23.682Z,89.51
2023-04-20T22:33:51.351Z,89.92
2023-04-20T22:36:18.981Z,91.49
2023-04-20T22:38:46.603Z,91.95
2023-04-20T22:41:16.673Z,92.02
2023-04-20T22:43:44.998Z,91.73
2023-04-20T22:46:12.717Z,90.62
2023-04-20T22:48:42.036Z,89.66
2023-04-20T22:51:09.590Z,89.76
2023-04-20T22:53:37.060Z,90.14
2023-04-20T22:56:06.512Z,91.80
2023-04-20T22:58:34.496Z,91.14
2023-04-20T23:01:02.605Z,90.10
2023-04-20T23:03:30.492Z,88.79
2023-04-20T23:05:59.365Z,87.44
2023-04-20T23:08:28.394Z,87.76
2023-04-20T23:10:56.036Z,88.27
2023-04-20T23:13:26.599Z,88.74
2023-04-20T23:15:54.497Z,89.60
2023-04-20T23:18:22.097Z,88.96
2023-04-20T23:20:49.668Z,90.23
2023-04-20T23:23:17.167Z,90.26
2023-04-20T23:25:44.704Z,90.65
2023-04-20T23:28:12.163Z,91.64
2023-04-20T23:30:39.672Z,91.51
2023-04-20T23:33:07.234Z,90.75
2023-04-20T23:35:34.805Z,90.01
2023-04-20T23:38:03.556Z,89.14
2023-04-20T23:40:32.726Z,89.41
2023-04-20T23:43:04.366Z,90.08
2023-04-20T23:45:31.916Z,89.02
2023-04-20T23:47:59.551Z,88.68
2023-04-20T23:50:27.045Z,89.67
2023-04-20T23:52:54.604Z,90.73
2023-04-20T23:55:22.078Z,90.78
2023-04-20T23:57:49.565Z,90.03
